Time;durP1;ratioP1;P1;durP2;ratioP2;P2;SDS_P1;SDS_P2;PMS_P1;PMS_P2;Temp;Humidity;BMP_temperature;BMP_pressure;BME280_temperature;BME280_humidity;BME280_pressure;Samples;Min_cycle;Max_cycle;Signal;HPM_P1;HPM_P2
2021/04/17 00:00:31;;;;;;;64.53;10.70;;;4.40;1.00;;;;;;5132169;27;20262;-68
2021/04/17 00:02:58;;;;;;;65.70;12.05;;;4.30;1.00;;;;;;5131699;27;20362;-68
2021/04/17 00:05:24;;;;;;;67.28;12.52;;;4.30;1.00;;;;;;5131173;27;20306;-68
2021/04/17 00:07:51;;;;;;;66.85;11.57;;;4.30;1.00;;;;;;5111550;28;20246;-68
2021/04/17 00:10:17;;;;;;;75.03;15.35;;;4.30;1.00;;;;;;5111534;28;20314;-68
2021/04/17 00:12:45;;;;;;;74.95;15.20;;;4.30;1.00;;;;;;5111259;28;20672;-68
2021/04/17 00:15:12;;;;;;;74.20;13.05;;;4.30;1.00;;;;;;5111415;28;20204;-68
2021/04/17 00:17:38;;;;;;;66.72;12.10;;;4.30;1.00;;;;;;5111181;28;20239;-68
2021/04/17 00:20:06;;;;;;;64.35;9.75;;;4.30;1.00;;;;;;5111458;28;20311;-68
2021/04/17 00:22:32;;;;;;;64.93;9.50;;;4.30;1.00;;;;;;5111106;28;20747;-68
2021/04/17 00:24:59;;;;;;;65.32;9.75;;;4.30;1.00;;;;;;5111381;28;20742;-68
2021/04/17 00:27:25;;;;;;;62.63;9.20;;;4.30;1.00;;;;;;5113010;28;20318;-68
2021/04/17 00:29:52;;;;;;;64.10;9.57;;;4.40;1.00;;;;;;5114813;28;20817;-68
2021/04/17 00:32:18;;;;;;;64.32;10.32;;;4.30;1.00;;;;;;5114705;28;20207;-68
2021/04/17 00:34:45;;;;;;;62.67;9.38;;;4.40;1.00;;;;;;5116206;27;20294;-68
2021/04/17 00:37:11;;;;;;;64.53;9.45;;;4.30;1.00;;;;;;5135194;27;20671;-68
2021/04/17 00:39:38;;;;;;;65.38;10.43;;;4.30;1.00;;;;;;5135292;27;20314;-68
2021/04/17 00:42:05;;;;;;;64.65;10.20;;;4.30;1.00;;;;;;5135159;27;20240;-68
2021/04/17 00:44:33;;;;;;;64.03;9.77;;;4.30;1.00;;;;;;5135253;27;20289;-68
2021/04/17 00:47:00;;;;;;;63.53;10.52;;;4.30;1.00;;;;;;5134970;27;20318;-68
2021/04/17 00:49:27;;;;;;;62.67;9.82;;;4.30;1.00;;;;;;5135197;27;20328;-68
2021/04/17 00:51:53;;;;;;;64.60;10.57;;;4.30;1.00;;;;;;5134816;27;20260;-68
2021/04/17 00:54:20;;;;;;;63.03;9.60;;;4.30;1.00;;;;;;5135317;27;20290;-68
2021/04/17 00:56:46;;;;;;;62.45;9.15;;;4.30;1.00;;;;;;5134976;27;20226;-68
2021/04/17 00:59:12;;;;;;;65.63;11.80;;;4.30;1.00;;;;;;5134671;27;20310;-68
2021/04/17 01:01:39;;;;;;;64.68;10.70;;;4.30;1.00;;;;;;5135315;27;20249;-68
2021/04/17 01:04:15;;;;;;;64.20;10.43;;;4.30;1.00;;;;;;5134793;27;20730;-68
2021/04/17 01:06:49;;;;;;;67.03;10.82;;;4.30;1.00;;;;;;5133371;27;20206;-68
2021/04/17 01:09:23;;;;;;;64.55;10.48;;;4.40;1.00;;;;;;5134387;27;20229;-68
2021/04/17 01:11:55;;;;;;;63.20;10.27;;;4.40;1.00;;;;;;5134576;27;20294;-68
2021/04/17 01:14:23;;;;;;;64.60;11.35;;;4.40;1.00;;;;;;5134656;27;20294;-68
2021/04/17 01:16:49;;;;;;;66.65;10.80;;;4.40;1.00;;;;;;5134723;27;20259;-68
2021/04/17 01:19:29;;;;;;;66.90;12.40;;;4.40;1.00;;;;;;5134349;27;20254;-68
2021/04/17 01:21:57;;;;;;;65.60;10.77;;;4.40;1.00;;;;;;5134407;27;20206;-68
2021/04/17 01:24:27;;;;;;;65.93;10.65;;;4.40;1.00;;;;;;5134629;27;20203;-68
2021/04/17 01:26:55;;;;;;;63.05;10.35;;;4.40;1.00;;;;;;5134905;27;20309;-68
2021/04/17 01:29:21;;;;;;;63.53;9.98;;;4.40;1.00;;;;;;5134487;27;20246;-68
2021/04/17 01:31:48;;;;;;;63.75;10.50;;;4.40;1.00;;;;;;5134674;27;20232;-68
2021/04/17 01:34:15;;;;;;;64.43;11.38;;;4.40;1.00;;;;;;5134550;27;20206;-68
2021/04/17 01:36:41;;;;;;;63.83;10.05;;;4.40;1.00;;;;;;5133984;27;20205;-68
2021/04/17 01:39:10;;;;;;;65.57;11.05;;;4.40;1.00;;;;;;5132660;27;20279;-68
2021/04/17 01:41:39;;;;;;;64.05;10.80;;;4.30;1.00;;;;;;5134279;27;20294;-68
2021/04/17 01:44:12;;;;;;;62.60;8.60;;;4.20;1.00;;;;;;5134274;27;20222;-68
2021/04/17 01:46:43;;;;;;;64.50;10.07;;;4.20;1.00;;;;;;5134301;27;20242;-68
2021/04/17 01:49:12;;;;;;;64.82;10.30;;;4.10;1.00;;;;;;5134351;27;20287;-69
2021/04/17 01:51:41;;;;;;;64.93;12.77;;;4.10;1.00;;;;;;5134039;27;20241;-68
2021/04/17 01:54:12;;;;;;;65.90;11.50;;;4.00;1.00;;;;;;5133980;27;20285;-68
2021/04/17 01:56:39;;;;;;;65.30;10.98;;;4.00;1.00;;;;;;5134010;27;20207;-68
2021/04/17 01:59:07;;;;;;;68.00;11.02;;;4.00;1.00;;;;;;5133934;27;20657;-68
2021/04/17 02:01:34;;;;;;;64.60;10.85;;;3.90;1.00;;;;;;5133747;27;20671;-68
2021/04/17 02:04:01;;;;;;;63.83;10.43;;;3.90;1.00;;;;;;5133300;27;20236;-69
2021/04/17 02:06:27;;;;;;;64.28;10.45;;;3.90;1.00;;;;;;5133694;27;20641;-69
2021/04/17 02:08:53;;;;;;;66.15;11.18;;;3.90;1.00;;;;;;5132441;27;20696;-68
2021/04/17 02:11:20;;;;;;;64.82;10.52;;;3.80;1.00;;;;;;5133851;27;20233;-68
2021/04/17 02:13:46;;;;;;;62.17;9.90;;;3.80;1.00;;;;;;5133357;27;20207;-69
2021/04/17 02:16:18;;;;;;;64.55;11.00;;;3.80;1.00;;;;;;5133354;27;20625;-68
2021/04/17 02:18:57;;;;;;;63.28;9.95;;;3.80;1.00;;;;;;5133263;27;20279;-68
2021/04/17 02:21:31;;;;;;;64.88;11.18;;;3.70;1.00;;;;;;5133468;27;20289;-69
2021/04/17 02:23:57;;;;;;;65.57;11.40;;;3.70;1.00;;;;;;5133218;27;20514;-68
2021/04/17 02:26:24;;;;;;;65.18;10.48;;;3.70;1.00;;;;;;5133225;27;20616;-68
2021/04/17 02:28:50;;;;;;;62.13;10.15;;;3.70;1.00;;;;;;5132857;27;20227;-68
2021/04/17 02:31:18;;;;;;;65.55;10.68;;;3.70;1.00;;;;;;5133363;27;20358;-68
2021/04/17 02:33:44;;;;;;;67.63;12.65;;;3.70;1.00;;;;;;5133070;27;20207;-68
2021/04/17 02:36:10;;;;;;;66.55;10.70;;;3.70;1.00;;;;;;5133070;27;20639;-68
2021/04/17 02:38:37;;;;;;;63.55;9.73;;;3.70;1.00;;;;;;5132788;27;20266;-68
2021/04/17 02:41:03;;;;;;;66.35;11.20;;;3.60;1.00;;;;;;5131582;27;20633;-68
2021/04/17 02:43:29;;;;;;;64.22;10.07;;;3.70;1.00;;;;;;5132504;27;20882;-68
2021/04/17 02:45:56;;;;;;;66.22;10.80;;;3.70;1.00;;;;;;5133058;27;20671;-68
2021/04/17 02:48:23;;;;;;;64.68;9.85;;;3.70;1.00;;;;;;5133059;27;20313;-68
2021/04/17 02:50:49;;;;;;;63.08;9.60;;;3.70;1.00;;;;;;5132846;27;20360;-68
2021/04/17 02:53:16;;;;;;;64.68;9.73;;;3.70;1.00;;;;;;5132747;27;20252;-68
2021/04/17 02:55:42;;;;;;;64.13;10.07;;;3.70;1.00;;;;;;5132656;27;20290;-68
2021/04/17 02:58:08;;;;;;;63.00;9.80;;;3.60;1.00;;;;;;5132561;27;20309;-69
2021/04/17 03:00:35;;;;;;;64.45;10.52;;;3.60;1.00;;;;;;5132769;27;20707;-68
2021/04/17 03:03:01;;;;;;;64.47;10.32;;;3.60;1.00;;;;;;5132687;27;20226;-68
2021/04/17 03:05:29;;;;;;;64.53;11.10;;;3.60;1.00;;;;;;5132605;27;20198;-68
2021/04/17 03:07:55;;;;;;;65.85;11.32;;;3.60;1.00;;;;;;5132721;27;20309;-68
2021/04/17 03:10:21;;;;;;;65.05;10.95;;;3.60;1.00;;;;;;5132233;27;20309;-68
2021/04/17 03:12:48;;;;;;;63.75;9.77;;;3.70;1.00;;;;;;5130916;27;20268;-68
2021/04/17 03:15:14;;;;;;;67.10;12.20;;;3.70;1.00;;;;;;5132735;27;20647;-68
2021/04/17 03:17:41;;;;;;;67.55;11.45;;;3.70;1.00;;;;;;5132479;27;20199;-68
2021/04/17 03:20:09;;;;;;;66.10;11.55;;;3.70;1.00;;;;;;5132305;27;20257;-68
2021/04/17 03:22:37;;;;;;;63.70;10.68;;;3.70;1.00;;;;;;5132298;27;20291;-67
2021/04/17 03:25:07;;;;;;;66.50;12.40;;;3.80;1.00;;;;;;5132174;27;20213;-67
2021/04/17 03:27:33;;;;;;;63.78;11.00;;;3.80;1.00;;;;;;5132412;27;20223;-66
2021/04/17 03:30:00;;;;;;;64.20;10.80;;;3.80;1.00;;;;;;5132670;27;20222;-67
2021/04/17 03:32:26;;;;;;;63.50;10.43;;;3.80;1.00;;;;;;5132343;27;20249;-67
2021/04/17 03:34:53;;;;;;;63.80;11.05;;;3.80;1.00;;;;;;5132437;27;20481;-67
2021/04/17 03:37:19;;;;;;;65.75;11.10;;;3.80;1.00;;;;;;5132187;27;20286;-67
2021/04/17 03:39:46;;;;;;;68.70;11.38;;;3.80;1.00;;;;;;5132162;27;20741;-67
2021/04/17 03:42:13;;;;;;;64.05;10.75;;;3.80;1.00;;;;;;5131343;27;20289;-67
2021/04/17 03:44:39;;;;;;;65.18;11.13;;;3.70;1.00;;;;;;5131746;27;20286;-67
2021/04/17 03:47:06;;;;;;;64.35;11.32;;;3.70;1.00;;;;;;5132236;27;20271;-67
2021/04/17 03:49:32;;;;;;;66.03;11.02;;;3.60;1.00;;;;;;5132514;27;20272;-67
2021/04/17 03:51:58;;;;;;;65.97;11.45;;;3.60;1.00;;;;;;5132018;27;20290;-67
2021/04/17 03:54:25;;;;;;;64.95;10.88;;;3.50;1.00;;;;;;5131939;27;20796;-67
2021/04/17 03:56:52;;;;;;;64.90;11.27;;;3.50;1.00;;;;;;5132229;27;20203;-67
2021/04/17 03:59:18;;;;;;;67.70;13.02;;;3.40;1.00;;;;;;5132312;27;20231;-67
2021/04/17 04:01:44;;;;;;;64.72;11.63;;;3.40;1.00;;;;;;5132851;27;20206;-67
2021/04/17 04:04:11;;;;;;;69.07;11.82;;;3.30;1.00;;;;;;5136054;27;20251;-68
2021/04/17 04:06:37;;;;;;;65.47;11.38;;;3.30;1.00;;;;;;5135854;27;20207;-67
2021/04/17 04:09:04;;;;;;;65.78;11.80;;;3.30;1.00;;;;;;5135647;27;20258;-68
2021/04/17 04:11:30;;;;;;;66.35;11.93;;;3.30;1.00;;;;;;5135820;27;20238;-67
2021/04/17 04:13:58;;;;;;;64.80;11.15;;;3.30;1.00;;;;;;5134200;27;20280;-67
2021/04/17 04:16:24;;;;;;;65.75;12.30;;;3.30;1.00;;;;;;5135693;27;20203;-67
2021/04/17 04:18:50;;;;;;;68.25;12.50;;;3.30;1.00;;;;;;5135623;27;20250;-67
2021/04/17 04:21:17;;;;;;;68.95;12.52;;;3.30;1.00;;;;;;5136049;27;20286;-67
2021/04/17 04:23:43;;;;;;;65.38;11.68;;;3.30;1.00;;;;;;5135686;27;20617;-68
2021/04/17 04:26:09;;;;;;;66.97;11.90;;;3.30;1.00;;;;;;5135723;27;20633;-67
2021/04/17 04:28:36;;;;;;;66.53;12.45;;;3.30;1.00;;;;;;5135542;27;20310;-68
2021/04/17 04:31:03;;;;;;;65.20;10.98;;;3.30;1.00;;;;;;5135568;27;20297;-67
2021/04/17 04:33:29;;;;;;;64.95;11.20;;;3.30;1.00;;;;;;5135285;27;20242;-68
2021/04/17 04:35:56;;;;;;;66.25;10.63;;;3.30;1.00;;;;;;5135258;27;20255;-67
2021/04/17 04:38:22;;;;;;;65.53;11.18;;;3.30;1.00;;;;;;5135223;27;20726;-68
2021/04/17 04:40:48;;;;;;;65.25;10.70;;;3.20;1.00;;;;;;5135417;27;20221;-67
2021/04/17 04:43:15;;;;;;;63.60;10.48;;;3.20;1.00;;;;;;5135330;27;20263;-67
2021/04/17 04:45:41;;;;;;;68.85;12.70;;;3.20;1.00;;;;;;5122052;27;20652;-67
2021/04/17 04:48:09;;;;;;;66.75;11.85;;;3.20;1.00;;;;;;5114414;28;20703;-67
2021/04/17 04:50:36;;;;;;;68.10;10.98;;;3.30;1.00;;;;;;5114196;28;20315;-67
2021/04/17 04:53:03;;;;;;;68.25;12.95;;;3.20;1.00;;;;;;5114592;28;20291;-67
2021/04/17 04:55:29;;;;;;;66.00;11.75;;;3.30;1.00;;;;;;5114557;28;20214;-67
2021/04/17 04:57:56;;;;;;;67.88;11.50;;;3.30;1.00;;;;;;5114515;28;20237;-67
2021/04/17 05:00:23;;;;;;;68.15;11.30;;;3.30;1.00;;;;;;5114343;28;20255;-67
2021/04/17 05:02:50;;;;;;;67.95;12.57;;;3.40;1.00;;;;;;5114090;28;20204;-67
2021/04/17 05:05:17;;;;;;;67.93;12.48;;;3.40;1.00;;;;;;5114302;28;20214;-67
2021/04/17 05:07:44;;;;;;;67.50;11.38;;;3.50;1.00;;;;;;5114341;28;20219;-67
2021/04/17 05:10:11;;;;;;;65.88;12.18;;;3.50;1.00;;;;;;5114159;27;20309;-67
2021/04/17 05:12:37;;;;;;;73.00;15.75;;;3.60;1.00;;;;;;5113995;28;20323;-67
2021/04/17 05:15:05;;;;;;;68.90;13.35;;;3.60;1.00;;;;;;5113033;28;20207;-67
2021/04/17 05:17:31;;;;;;;70.57;12.65;;;3.60;1.00;;;;;;5130188;27;20294;-67
2021/04/17 05:19:57;;;;;;;68.50;12.68;;;3.60;1.00;;;;;;5134874;27;20338;-67
2021/04/17 05:22:25;;;;;;;67.00;12.23;;;3.70;1.00;;;;;;5134695;27;20290;-67
2021/04/17 05:24:51;;;;;;;72.50;14.60;;;3.70;1.00;;;;;;5134522;27;20693;-67
2021/04/17 05:27:18;;;;;;;69.78;13.05;;;3.80;1.00;;;;;;5134589;27;20302;-67
2021/04/17 05:29:44;;;;;;;68.03;13.25;;;3.90;1.00;;;;;;5134374;27;20219;-68
2021/04/17 05:32:11;;;;;;;72.13;13.57;;;4.00;1.00;;;;;;5133973;27;20696;-67
2021/04/17 05:34:38;;;;;;;68.75;12.90;;;4.00;1.00;;;;;;5134489;27;20297;-67
2021/04/17 05:37:04;;;;;;;68.63;12.40;;;4.00;1.00;;;;;;5134117;27;20261;-67
2021/04/17 05:39:32;;;;;;;66.80;11.45;;;4.10;1.00;;;;;;5133995;27;20310;-67
2021/04/17 05:41:58;;;;;;;70.90;13.00;;;4.20;1.00;;;;;;5134075;27;20298;-67
2021/04/17 05:44:24;;;;;;;69.32;12.38;;;4.30;1.00;;;;;;5134187;27;20294;-67
2021/04/17 05:46:51;;;;;;;68.25;12.95;;;4.40;1.00;;;;;;5132513;27;20293;-67
2021/04/17 05:49:17;;;;;;;69.68;12.30;;;4.50;1.00;;;;;;5134016;27;20227;-67
2021/04/17 05:51:44;;;;;;;67.97;12.15;;;4.60;1.00;;;;;;5134378;27;20584;-67
2021/04/17 05:54:13;;;;;;;66.53;12.07;;;4.60;1.00;;;;;;5133998;27;20207;-67
2021/04/17 05:56:40;;;;;;;68.82;12.45;;;4.70;1.00;;;;;;5133994;27;20203;-68
2021/04/17 05:59:07;;;;;;;66.25;12.07;;;4.80;1.00;;;;;;5133609;27;20306;-68
2021/04/17 06:01:34;;;;;;;70.00;13.15;;;5.00;1.00;;;;;;5133868;27;20294;-67
2021/04/17 06:04:01;;;;;;;67.20;12.63;;;5.10;1.00;;;;;;5133988;27;20313;-67
2021/04/17 06:06:27;;;;;;;71.15;13.70;;;5.10;1.00;;;;;;5134279;27;20672;-67
2021/04/17 06:08:53;;;;;;;68.72;12.90;;;5.10;1.00;;;;;;5134132;27;20659;-67
2021/04/17 06:11:20;;;;;;;67.60;12.98;;;5.20;1.00;;;;;;5133597;27;20199;-67
2021/04/17 06:13:47;;;;;;;66.35;10.85;;;5.20;1.00;;;;;;5133397;27;20663;-67
2021/04/17 06:16:14;;;;;;;69.38;13.25;;;5.20;1.00;;;;;;5133815;27;20298;-67
2021/04/17 06:18:40;;;;;;;68.85;12.45;;;5.30;1.00;;;;;;5132628;27;20238;-67
2021/04/17 06:21:07;;;;;;;66.32;12.13;;;5.30;1.00;;;;;;5133639;27;20199;-68
2021/04/17 06:23:34;;;;;;;65.20;11.73;;;5.40;1.00;;;;;;5133528;27;20290;-67
2021/04/17 06:26:01;;;;;;;66.03;10.50;;;5.50;1.00;;;;;;5133311;27;20310;-67
2021/04/17 06:28:29;;;;;;;66.10;11.68;;;5.50;1.00;;;;;;5133167;27;20566;-67
2021/04/17 06:30:56;;;;;;;66.53;12.00;;;5.60;1.00;;;;;;5133404;27;20210;-67
2021/04/17 06:33:23;;;;;;;67.72;13.32;;;5.60;1.00;;;;;;5133135;27;20241;-67
2021/04/17 06:35:49;;;;;;;66.78;11.73;;;5.60;1.00;;;;;;5133088;27;20289;-68
2021/04/17 06:38:16;;;;;;;68.30;12.00;;;5.70;1.00;;;;;;5133150;27;20282;-68
2021/04/17 06:40:43;;;;;;;67.57;13.50;;;5.90;1.00;;;;;;5133325;27;20203;-68
2021/04/17 06:43:10;;;;;;;68.13;11.60;;;6.10;1.00;;;;;;5133003;27;20294;-68
2021/04/17 06:45:38;;;;;;;68.70;12.55;;;6.30;1.00;;;;;;5133433;27;20239;-68
2021/04/17 06:48:08;;;;;;;68.32;12.65;;;6.50;1.00;;;;;;5133037;27;20722;-68
2021/04/17 06:50:34;;;;;;;69.03;12.50;;;6.70;1.00;;;;;;5115340;27;20310;-68
2021/04/17 06:53:03;;;;;;;67.97;12.93;;;6.90;1.00;;;;;;5131448;27;20293;-68
2021/04/17 06:55:29;;;;;;;64.60;10.73;;;7.00;1.00;;;;;;5132775;27;20289;-68
2021/04/17 06:57:56;;;;;;;65.72;11.48;;;7.10;1.00;;;;;;5133216;27;20203;-68
2021/04/17 07:00:24;;;;;;;66.22;11.20;;;7.20;1.00;;;;;;5133027;27;20313;-68
2021/04/17 07:02:50;;;;;;;67.47;12.30;;;7.40;1.00;;;;;;5131680;27;20238;-68
2021/04/17 07:05:18;;;;;;;65.40;12.38;;;7.50;1.00;;;;;;5132834;27;20690;-68
2021/04/17 07:07:44;;;;;;;66.68;11.07;;;7.60;1.00;;;;;;5132823;27;20227;-68
2021/04/17 07:10:12;;;;;;;66.68;13.00;;;7.80;1.00;;;;;;5132346;27;20632;-68
2021/04/17 07:12:39;;;;;;;66.13;11.40;;;7.80;1.00;;;;;;5132644;27;20825;-68
2021/04/17 07:15:07;;;;;;;65.70;10.65;;;7.80;1.00;;;;;;5132777;27;20235;-68
2021/04/17 07:17:35;;;;;;;65.38;10.77;;;7.80;1.00;;;;;;5132676;27;20218;-68
2021/04/17 07:20:03;;;;;;;65.28;11.70;;;7.80;1.00;;;;;;5132633;27;20347;-68
2021/04/17 07:22:32;;;;;;;65.70;10.80;;;8.00;1.00;;;;;;5131754;27;20245;-68
2021/04/17 07:25:14;;;;;;;64.97;10.13;;;8.10;1.00;;;;;;5132501;27;20211;-68
2021/04/17 07:27:42;;;;;;;66.65;11.70;;;8.30;1.00;;;;;;5132501;27;20310;-68
2021/04/17 07:30:27;;;;;;;67.73;11.50;;;8.50;1.00;;;;;;5132473;27;20274;-68
2021/04/17 07:33:05;;;;;;;68.57;10.77;;;8.50;1.00;;;;;;5132452;27;21008;-68
2021/04/17 07:35:35;;;;;;;65.55;9.93;;;8.50;1.00;;;;;;5132657;27;20440;-68
2021/04/17 07:38:11;;;;;;;65.85;11.63;;;8.50;1.00;;;;;;5135345;27;20214;-68
2021/04/17 07:40:38;;;;;;;66.75;12.80;;;8.40;1.00;;;;;;5136685;27;20255;-68
2021/04/17 07:43:04;;;;;;;63.80;10.20;;;8.40;1.00;;;;;;5136401;27;20260;-68
2021/04/17 07:45:32;;;;;;;63.73;10.97;;;8.40;1.00;;;;;;5136186;27;20475;-68
2021/04/17 07:48:01;;;;;;;66.60;12.33;;;8.40;1.00;;;;;;5136781;27;20623;-68
2021/04/17 07:50:31;;;;;;;64.47;11.37;;;8.40;1.00;;;;;;5136744;27;21045;-68
2021/04/17 07:52:58;;;;;;;64.60;10.73;;;8.50;1.00;;;;;;5130423;27;20934;-68
2021/04/17 07:55:31;;;;;;;64.20;10.37;;;8.60;1.00;;;;;;5123472;27;20438;-69
2021/04/17 07:57:59;;;;;;;63.33;9.80;;;8.60;1.00;;;;;;5136221;27;20806;-68
2021/04/17 08:00:27;;;;;;;62.28;8.63;;;8.60;1.00;;;;;;5136460;27;20605;-69
2021/04/17 08:02:55;;;;;;;63.38;10.43;;;8.60;1.00;;;;;;5136387;27;20240;-68
2021/04/17 08:05:22;;;;;;;62.87;9.80;;;8.60;1.00;;;;;;5136420;27;20290;-69
2021/04/17 08:07:49;;;;;;;65.83;10.77;;;8.80;1.00;;;;;;5136184;27;20847;-68
2021/04/17 08:10:18;;;;;;;61.17;8.95;;;8.90;1.00;;;;;;5135929;27;20614;-68
2021/04/17 08:12:48;;;;;;;62.90;9.23;;;9.10;1.00;;;;;;5135713;27;20237;-69
2021/04/17 08:15:17;;;;;;;63.57;9.73;;;9.20;1.00;;;;;;5136148;27;20445;-69
2021/04/17 08:17:45;;;;;;;62.47;9.53;;;9.30;1.00;;;;;;5136133;27;20474;-69
2021/04/17 08:20:14;;;;;;;66.10;10.07;;;9.50;1.00;;;;;;5135879;27;20460;-68
2021/04/17 08:22:42;;;;;;;65.00;10.03;;;9.60;1.00;;;;;;5135640;27;20882;-69
2021/04/17 08:25:10;;;;;;;65.67;8.90;;;9.50;1.00;;;;;;5127449;27;20526;-69
2021/04/17 08:27:37;;;;;;;62.80;8.60;;;9.60;1.00;;;;;;5125029;27;20565;-69
2021/04/17 08:30:07;;;;;;;65.40;10.40;;;9.70;1.00;;;;;;5135740;27;20463;-69
2021/04/17 08:32:35;;;;;;;64.00;10.73;;;9.90;1.00;;;;;;5135764;27;20887;-69
2021/04/17 08:35:10;;;;;;;63.07;9.77;;;10.00;1.00;;;;;;5135639;27;20541;-66
2021/04/17 08:38:01;;;;;;;66.80;10.87;;;10.20;1.00;;;;;;5135287;27;20485;-66
2021/04/17 08:40:54;;;;;;;64.60;11.33;;;10.30;1.00;;;;;;5135332;27;20913;-66
2021/04/17 08:43:38;;;;;;;64.93;10.93;;;10.50;1.00;;;;;;5098646;27;20534;-67
2021/04/17 08:46:12;;;;;;;63.27;10.13;;;10.60;1.00;;;;;;5135435;27;20500;-67
2021/04/17 08:48:58;;;;;;;62.80;9.30;;;10.80;1.00;;;;;;5135097;27;20486;-67
2021/04/17 08:51:45;;;;;;;64.20;10.70;;;11.10;1.00;;;;;;5135440;27;20479;-67
2021/04/17 08:54:20;;;;;;;67.30;10.87;;;11.40;1.00;;;;;;5135112;27;20489;-67
2021/04/17 08:56:52;;;;;;;63.83;10.40;;;11.50;1.00;;;;;;5134065;27;20466;-67
2021/04/17 08:59:20;;;;;;;65.67;9.70;;;11.70;1.00;;;;;;5135263;27;20504;-67
2021/04/17 09:01:48;;;;;;;63.30;9.90;;;11.80;1.00;;;;;;5135221;27;20526;-67
2021/04/17 09:04:15;;;;;;;62.80;8.70;;;11.80;1.00;;;;;;5135530;27;20470;-67
2021/04/17 09:06:44;;;;;;;62.60;7.43;;;11.90;1.00;;;;;;5134947;27;20452;-67
2021/04/17 09:09:30;;;;;;;61.77;8.23;;;12.00;1.00;;;;;;5134824;27;20556;-67
2021/04/17 09:12:16;;;;;;;60.53;7.30;;;12.30;1.00;;;;;;5134955;27;20472;-69
2021/04/17 09:15:05;;;;;;;59.97;6.60;;;12.60;1.00;;;;;;5135344;27;20505;-67
2021/04/17 09:17:46;;;;;;;62.87;8.37;;;13.00;1.00;;;;;;5130507;27;20457;-67
2021/04/17 09:20:15;;;;;;;61.00;7.77;;;13.30;1.00;;;;;;5134641;27;20456;-67
2021/04/17 09:22:47;;;;;;;59.80;6.80;;;13.40;1.00;;;;;;5134692;27;20885;-67
2021/04/17 09:25:15;;;;;;;59.73;6.23;;;13.30;1.00;;;;;;5134635;27;20452;-67
2021/04/17 09:27:43;;;;;;;61.60;7.57;;;13.30;1.00;;;;;;5134969;27;20598;-67
2021/04/17 09:30:12;;;;;;;62.30;8.17;;;13.40;1.00;;;;;;5134379;27;21010;-67
2021/04/17 09:32:43;;;;;;;61.43;7.97;;;13.40;1.00;;;;;;5134694;27;20447;-67
2021/04/17 09:35:14;;;;;;;60.00;7.07;;;13.30;1.00;;;;;;5134187;27;20487;-67
2021/04/17 09:37:41;;;;;;;60.20;7.33;;;13.30;1.00;;;;;;5133312;27;20504;-67
2021/04/17 09:40:08;;;;;;;61.60;8.80;;;13.40;1.00;;;;;;5134179;27;20525;-67
2021/04/17 09:42:36;;;;;;;62.80;8.60;;;13.50;1.00;;;;;;5134922;27;20527;-67
2021/04/17 09:45:05;;;;;;;61.73;8.43;;;13.60;1.00;;;;;;5134825;27;20453;-67
2021/04/17 09:47:31;;;;;;;62.07;8.50;;;13.70;1.00;;;;;;5133791;27;20900;-68
2021/04/17 09:49:59;;;;;;;63.03;9.07;;;13.60;1.00;;;;;;5134080;27;20504;-69
2021/04/17 09:52:27;;;;;;;62.20;8.70;;;13.50;1.00;;;;;;5134026;27;20512;-68
2021/04/17 09:54:59;;;;;;;61.50;8.30;;;13.30;1.00;;;;;;5133837;27;20992;-69
2021/04/17 09:57:25;;;;;;;61.67;7.77;;;13.20;1.00;;;;;;5134031;27;20448;-68
2021/04/17 09:59:53;;;;;;;61.53;7.27;;;13.10;1.00;;;;;;5133464;27;20491;-68
2021/04/17 10:02:20;;;;;;;61.00;7.80;;;13.10;1.00;;;;;;5133744;27;20480;-68
2021/04/17 10:04:47;;;;;;;62.27;7.30;;;13.00;1.00;;;;;;5134010;27;20479;-68
2021/04/17 10:07:15;;;;;;;61.53;6.70;;;13.00;1.00;;;;;;5133822;27;20486;-68
2021/04/17 10:09:42;;;;;;;60.70;7.10;;;13.10;1.00;;;;;;5133651;27;20892;-68
2021/04/17 10:12:09;;;;;;;61.77;7.37;;;13.40;1.00;;;;;;5133623;27;20444;-68
2021/04/17 10:14:36;;;;;;;63.57;8.90;;;13.80;1.00;;;;;;5133589;27;20476;-68
2021/04/17 10:17:03;;;;;;;63.57;8.67;;;14.20;1.00;;;;;;5133822;27;20539;-68
2021/04/17 10:19:30;;;;;;;61.20;7.70;;;14.70;1.00;;;;;;5133415;27;20535;-68
2021/04/17 10:21:58;;;;;;;62.07;9.03;;;14.90;1.00;;;;;;5133343;27;20539;-68
2021/04/17 10:24:28;;;;;;;60.80;8.37;;;14.90;1.00;;;;;;5133475;27;20448;-68
2021/04/17 10:27:07;;;;;;;64.13;8.70;;;15.00;1.00;;;;;;5133493;27;20455;-69
2021/04/17 10:29:36;;;;;;;60.97;8.33;;;15.10;1.00;;;;;;5133318;27;20571;-68
2021/04/17 10:32:05;;;;;;;63.20;8.60;;;15.20;1.00;;;;;;5133256;27;20531;-68
2021/04/17 10:34:31;;;;;;;60.30;7.87;;;15.20;1.00;;;;;;5133670;27;20857;-68
2021/04/17 10:37:00;;;;;;;60.07;7.30;;;15.40;1.00;;;;;;5133348;27;20464;-68
2021/04/17 10:39:28;;;;;;;60.90;8.00;;;16.20;1.00;;;;;;5132935;27;20545;-68
2021/04/17 10:41:59;;;;;;;64.43;8.10;;;17.50;1.00;;;;;;5131991;27;20876;-68
2021/04/17 10:44:25;;;;;;;61.10;8.07;;;18.00;1.00;;;;;;5133260;27;20451;-68
2021/04/17 10:46:52;;;;;;;59.80;7.10;;;17.80;1.00;;;;;;5131775;27;20946;-68
2021/04/17 10:49:36;;;;;;;61.93;7.50;;;17.30;1.00;;;;;;5132768;27;20531;-68
2021/04/17 10:52:05;;;;;;;61.90;7.23;;;16.70;1.00;;;;;;5132831;27;20485;-68
2021/04/17 10:54:32;;;;;;;60.43;7.70;;;16.30;1.00;;;;;;5132942;27;20543;-68
2021/04/17 10:57:04;;;;;;;60.33;7.63;;;15.90;1.00;;;;;;5131888;27;21001;-69
2021/04/17 10:59:57;;;;;;;60.70;6.60;;;15.30;1.00;;;;;;5132571;27;20499;-68
2021/04/17 11:02:25;;;;;;;60.57;7.43;;;14.90;1.00;;;;;;5132879;27;20816;-68
2021/04/17 11:04:51;;;;;;;60.03;7.00;;;14.60;1.00;;;;;;5132817;27;20448;-68
2021/04/17 11:07:18;;;;;;;60.37;6.53;;;14.50;1.00;;;;;;5133345;27;20443;-69
2021/04/17 11:09:48;;;;;;;60.03;8.03;;;14.40;1.00;;;;;;5132401;27;20575;-68
2021/04/17 11:12:29;;;;;;;59.93;7.00;;;14.40;1.00;;;;;;5131797;27;20531;-69
2021/04/17 11:15:16;;;;;;;60.67;7.33;;;14.50;1.00;;;;;;5132906;27;20445;-69
2021/04/17 11:17:43;;;;;;;59.50;6.10;;;15.00;1.00;;;;;;5132689;27;20442;-69
2021/04/17 11:20:17;;;;;;;60.70;6.50;;;15.90;1.00;;;;;;5132307;27;20472;-69
2021/04/17 11:22:44;;;;;;;61.30;5.90;;;16.90;1.00;;;;;;5132450;27;20528;-67
2021/04/17 11:25:13;;;;;;;60.07;6.43;;;18.40;1.00;;;;;;5132502;27;20534;-69
2021/04/17 11:27:40;;;;;;;58.90;6.00;;;19.70;1.00;;;;;;5132591;27;20488;-69
2021/04/17 11:30:09;;;;;;;58.37;5.13;;;21.20;1.00;;;;;;5132390;27;20570;-68
2021/04/17 11:32:35;;;;;;;60.07;5.87;;;22.70;1.00;;;;;;5132113;27;20943;-68
2021/04/17 11:35:05;;;;;;;58.23;5.40;;;24.00;1.00;;;;;;5132651;27;20523;-68
2021/04/17 11:37:31;;;;;;;58.37;6.00;;;25.00;1.00;;;;;;5132258;27;20457;-68
2021/04/17 11:39:58;;;;;;;59.27;6.07;;;25.60;1.00;;;;;;5132489;27;20567;-68
2021/04/17 11:42:25;;;;;;;58.77;6.17;;;25.50;1.00;;;;;;5132446;27;20574;-68
2021/04/17 11:44:53;;;;;;;58.47;5.30;;;25.10;1.00;;;;;;5132340;27;20473;-67
2021/04/17 11:47:19;;;;;;;58.70;5.70;;;24.30;1.00;;;;;;5132291;27;20499;-68
2021/04/17 11:49:46;;;;;;;58.93;6.03;;;23.40;1.00;;;;;;5132502;27;20520;-68
2021/04/17 11:52:13;;;;;;;60.30;5.60;;;22.40;1.00;;;;;;5132456;27;20884;-68
2021/04/17 11:54:39;;;;;;;61.40;5.67;;;21.80;1.00;;;;;;5131176;27;20452;-68
2021/04/17 11:57:06;;;;;;;59.07;6.23;;;21.10;1.00;;;;;;5132067;27;20536;-68
2021/04/17 11:59:33;;;;;;;58.90;6.10;;;20.90;1.00;;;;;;5132128;27;20786;-68
2021/04/17 12:01:59;;;;;;;59.37;5.57;;;21.10;1.00;;;;;;5132187;27;20529;-68
2021/04/17 12:04:26;;;;;;;59.27;5.50;;;20.60;1.00;;;;;;5132526;27;20881;-68
2021/04/17 12:06:52;;;;;;;63.10;7.80;;;20.10;1.00;;;;;;5132368;27;20531;-68
2021/04/17 12:09:19;;;;;;;60.70;6.03;;;19.90;1.00;;;;;;5131992;27;20546;-68
2021/04/17 12:11:47;;;;;;;58.47;5.63;;;21.00;1.00;;;;;;5132398;27;20463;-68
2021/04/17 12:14:13;;;;;;;57.97;5.33;;;22.40;1.00;;;;;;5132156;27;20452;-68
2021/04/17 12:16:41;;;;;;;61.60;6.23;;;22.80;1.00;;;;;;5132310;27;20856;-68
2021/04/17 12:19:07;;;;;;;59.20;5.67;;;22.30;1.00;;;;;;5131925;27;21026;-68
2021/04/17 12:21:34;;;;;;;60.20;5.13;;;21.50;1.00;;;;;;5132155;27;20850;-68
2021/04/17 12:24:00;;;;;;;66.53;6.70;;;20.80;1.00;;;;;;5133341;27;20449;-68
2021/04/17 12:26:26;;;;;;;61.20;5.63;;;19.80;1.00;;;;;;5135784;27;20491;-68
2021/04/17 12:28:53;;;;;;;59.07;5.53;;;18.80;1.00;;;;;;5136175;27;20518;-68
2021/04/17 12:31:19;;;;;;;59.90;5.90;;;18.00;1.00;;;;;;5136116;27;20527;-67
2021/04/17 12:33:46;;;;;;;59.63;5.60;;;17.20;1.00;;;;;;5136035;27;20511;-68
2021/04/17 12:36:12;;;;;;;62.20;6.00;;;16.60;1.00;;;;;;5136006;27;20528;-68
2021/04/17 12:38:39;;;;;;;60.77;6.47;;;16.20;1.00;;;;;;5135679;27;20562;-68
2021/04/17 12:41:05;;;;;;;62.80;5.60;;;15.90;1.00;;;;;;5135974;27;20442;-68
2021/04/17 12:43:32;;;;;;;60.00;5.30;;;15.70;1.00;;;;;;5135622;27;20481;-68
2021/04/17 12:45:58;;;;;;;61.43;7.10;;;15.50;1.00;;;;;;5135568;27;21021;-68
2021/04/17 12:48:24;;;;;;;60.63;6.20;;;15.40;1.00;;;;;;5135541;27;20501;-68
2021/04/17 12:50:52;;;;;;;60.13;5.50;;;15.30;1.00;;;;;;5135565;27;20481;-68
2021/04/17 12:53:23;;;;;;;59.07;5.07;;;15.30;1.00;;;;;;5135487;27;20888;-68